sensor_id;sensor_type;location;lat;lon;timestamp;temperature;humidity
23271;DHT22;11804;51.118;17.058;2023-11-19T00:01:46;3.00;99.90
23271;DHT22;11804;51.118;17.058;2023-11-19T00:04:14;3.00;99.90
23271;DHT22;11804;51.118;17.058;2023-11-19T00:06:41;3.00;99.90
23271;DHT22;11804;51.118;17.058;2023-11-19T00:09:09;3.00;99.90
23271;DHT22;11804;51.118;17.058;2023-11-19T00:11:36;3.00;99.90
23271;DHT22;11804;51.118;17.058;2023-11-19T00:14:04;2.90;99.90
23271;DHT22;11804;51.118;17.058;2023-11-19T00:16:34;2.90;99.90
23271;DHT22;11804;51.118;17.058;2023-11-19T00:19:01;2.90;99.90
23271;DHT22;11804;51.118;17.058;2023-11-19T00:21:30;2.90;99.90
23271;DHT22;11804;51.118;17.058;2023-11-19T00:24:00;2.80;99.90
23271;DHT22;11804;51.118;17.058;2023-11-19T00:26:27;2.80;99.90
23271;DHT22;11804;51.118;17.058;2023-11-19T00:28:55;2.80;99.90
23271;DHT22;11804;51.118;17.058;2023-11-19T00:31:22;2.80;99.90
23271;DHT22;11804;51.118;17.058;2023-11-19T00:33:50;2.80;99.90
23271;DHT22;11804;51.118;17.058;2023-11-19T00:36:17;2.70;99.90
23271;DHT22;11804;51.118;17.058;2023-11-19T00:38:45;2.70;99.90
23271;DHT22;11804;51.118;17.058;2023-11-19T00:41:13;2.60;99.90
23271;DHT22;11804;51.118;17.058;2023-11-19T00:43:42;2.70;99.90
23271;DHT22;11804;51.118;17.058;2023-11-19T00:46:10;2.60;99.90
23271;DHT22;11804;51.118;17.058;2023-11-19T00:48:43;2.60;99.90
23271;DHT22;11804;51.118;17.058;2023-11-19T00:51:12;2.60;99.90
23271;DHT22;11804;51.118;17.058;2023-11-19T00:53:40;2.60;99.90
23271;DHT22;11804;51.118;17.058;2023-11-19T00:56:08;2.60;99.90
23271;DHT22;11804;51.118;17.058;2023-11-19T00:58:38;2.50;99.90
23271;DHT22;11804;51.118;17.058;2023-11-19T01:01:06;2.60;99.90
23271;DHT22;11804;51.118;17.058;2023-11-19T01:03:33;2.50;99.90
23271;DHT22;11804;51.118;17.058;2023-11-19T01:06:01;2.50;99.90
23271;DHT22;11804;51.118;17.058;2023-11-19T01:08:29;2.50;99.90
23271;DHT22;11804;51.118;17.058;2023-11-19T01:10:56;2.50;99.90
23271;DHT22;11804;51.118;17.058;2023-11-19T01:13:24;2.40;99.90
23271;DHT22;11804;51.118;17.058;2023-11-19T01:15:51;2.40;99.90
23271;DHT22;11804;51.118;17.058;2023-11-19T01:18:19;2.30;99.90
23271;DHT22;11804;51.118;17.058;2023-11-19T01:20:46;2.40;99.90
23271;DHT22;11804;51.118;17.058;2023-11-19T01:23:14;2.30;99.90
23271;DHT22;11804;51.118;17.058;2023-11-19T01:25:41;2.30;99.90
23271;DHT22;11804;51.118;17.058;2023-11-19T01:28:09;2.30;99.90
23271;DHT22;11804;51.118;17.058;2023-11-19T01:30:37;2.30;99.90
23271;DHT22;11804;51.118;17.058;2023-11-19T01:33:04;2.30;99.90
23271;DHT22;11804;51.118;17.058;2023-11-19T01:35:34;2.20;99.90
23271;DHT22;11804;51.118;17.058;2023-11-19T01:38:01;2.20;99.90
23271;DHT22;11804;51.118;17.058;2023-11-19T01:40:29;2.20;99.90
23271;DHT22;11804;51.118;17.058;2023-11-19T01:42:56;2.20;99.90
23271;DHT22;11804;51.118;17.058;2023-11-19T01:45:31;2.20;99.90
23271;DHT22;11804;51.118;17.058;2023-11-19T01:48:00;2.20;99.90
23271;DHT22;11804;51.118;17.058;2023-11-19T01:50:28;2.20;99.90
23271;DHT22;11804;51.118;17.058;2023-11-19T01:52:57;2.30;99.90
23271;DHT22;11804;51.118;17.058;2023-11-19T01:55:26;2.40;99.90
23271;DHT22;11804;51.118;17.058;2023-11-19T01:57:59;2.40;99.90
23271;DHT22;11804;51.118;17.058;2023-11-19T02:00:28;2.40;99.90
23271;DHT22;11804;51.118;17.058;2023-11-19T02:02:56;2.40;99.90
23271;DHT22;11804;51.118;17.058;2023-11-19T02:05:23;2.30;99.90
23271;DHT22;11804;51.118;17.058;2023-11-19T02:07:52;2.30;99.90
23271;DHT22;11804;51.118;17.058;2023-11-19T02:10:19;2.30;99.90
23271;DHT22;11804;51.118;17.058;2023-11-19T02:12:47;2.30;99.90
23271;DHT22;11804;51.118;17.058;2023-11-19T02:15:15;2.20;99.90
23271;DHT22;11804;51.118;17.058;2023-11-19T02:17:45;2.20;99.90
23271;DHT22;11804;51.118;17.058;2023-11-19T02:20:12;2.20;99.90
23271;DHT22;11804;51.118;17.058;2023-11-19T02:22:42;2.20;99.90
23271;DHT22;11804;51.118;17.058;2023-11-19T02:25:15;2.10;99.90
23271;DHT22;11804;51.118;17.058;2023-11-19T02:27:55;2.10;99.90
23271;DHT22;11804;51.118;17.058;2023-11-19T02:30:21;2.10;99.90
23271;DHT22;11804;51.118;17.058;2023-11-19T02:32:56;2.10;99.90
23271;DHT22;11804;51.118;17.058;2023-11-19T02:35:25;2.20;99.90
23271;DHT22;11804;51.118;17.058;2023-11-19T02:37:58;2.20;99.90
23271;DHT22;11804;51.118;17.058;2023-11-19T02:40:23;2.20;99.90
23271;DHT22;11804;51.118;17.058;2023-11-19T02:42:54;2.10;99.90
23271;DHT22;11804;51.118;17.058;2023-11-19T02:45:24;2.20;99.90
23271;DHT22;11804;51.118;17.058;2023-11-19T02:47:52;2.30;99.90
23271;DHT22;11804;51.118;17.058;2023-11-19T02:50:21;2.20;99.90
23271;DHT22;11804;51.118;17.058;2023-11-19T02:52:55;2.20;99.90
23271;DHT22;11804;51.118;17.058;2023-11-19T02:55:24;2.30;99.90
23271;DHT22;11804;51.118;17.058;2023-11-19T02:57:53;2.30;99.90
23271;DHT22;11804;51.118;17.058;2023-11-19T03:00:23;2.30;99.90
23271;DHT22;11804;51.118;17.058;2023-11-19T03:02:52;2.30;99.90
23271;DHT22;11804;51.118;17.058;2023-11-19T03:05:27;2.30;99.90
23271;DHT22;11804;51.118;17.058;2023-11-19T03:07:56;2.30;99.90
23271;DHT22;11804;51.118;17.058;2023-11-19T03:10:24;2.20;99.90
23271;DHT22;11804;51.118;17.058;2023-11-19T03:12:52;2.20;99.90
23271;DHT22;11804;51.118;17.058;2023-11-19T03:15:21;2.10;99.90
23271;DHT22;11804;51.118;17.058;2023-11-19T03:17:48;2.10;99.90
23271;DHT22;11804;51.118;17.058;2023-11-19T03:20:16;2.10;99.90
23271;DHT22;11804;51.118;17.058;2023-11-19T03:22:44;2.10;99.90
23271;DHT22;11804;51.118;17.058;2023-11-19T03:25:12;2.10;99.90
23271;DHT22;11804;51.118;17.058;2023-11-19T03:27:40;2.00;99.90
23271;DHT22;11804;51.118;17.058;2023-11-19T03:30:10;2.10;99.90
23271;DHT22;11804;51.118;17.058;2023-11-19T03:32:38;2.10;99.90
23271;DHT22;11804;51.118;17.058;2023-11-19T03:35:07;2.10;99.90
23271;DHT22;11804;51.118;17.058;2023-11-19T03:37:35;2.10;99.90
23271;DHT22;11804;51.118;17.058;2023-11-19T03:40:04;2.10;99.90
23271;DHT22;11804;51.118;17.058;2023-11-19T03:42:31;2.20;99.90
23271;DHT22;11804;51.118;17.058;2023-11-19T03:44:59;2.30;99.90
23271;DHT22;11804;51.118;17.058;2023-11-19T03:47:26;2.40;99.90
23271;DHT22;11804;51.118;17.058;2023-11-19T03:49:54;2.30;99.90
23271;DHT22;11804;51.118;17.058;2023-11-19T03:52:22;2.20;99.90
23271;DHT22;11804;51.118;17.058;2023-11-19T03:54:50;2.30;99.90
23271;DHT22;11804;51.118;17.058;2023-11-19T03:57:17;2.20;99.90
23271;DHT22;11804;51.118;17.058;2023-11-19T03:59:45;2.30;99.90
23271;DHT22;11804;51.118;17.058;2023-11-19T04:02:13;2.30;99.90
23271;DHT22;11804;51.118;17.058;2023-11-19T04:04:40;2.20;99.90
23271;DHT22;11804;51.118;17.058;2023-11-19T04:07:08;2.20;99.90
23271;DHT22;11804;51.118;17.058;2023-11-19T04:09:35;2.30;99.90
23271;DHT22;11804;51.118;17.058;2023-11-19T04:12:04;2.30;99.90
23271;DHT22;11804;51.118;17.058;2023-11-19T04:14:33;2.40;99.90
23271;DHT22;11804;51.118;17.058;2023-11-19T04:17:00;2.30;99.90
23271;DHT22;11804;51.118;17.058;2023-11-19T04:19:29;2.30;99.90
23271;DHT22;11804;51.118;17.058;2023-11-19T04:21:58;2.30;99.90
23271;DHT22;11804;51.118;17.058;2023-11-19T04:24:26;2.30;99.90
23271;DHT22;11804;51.118;17.058;2023-11-19T04:26:55;2.30;99.90
23271;DHT22;11804;51.118;17.058;2023-11-19T04:29:22;2.30;99.90
23271;DHT22;11804;51.118;17.058;2023-11-19T04:31:50;2.30;99.90
23271;DHT22;11804;51.118;17.058;2023-11-19T04:34:17;2.20;99.90
23271;DHT22;11804;51.118;17.058;2023-11-19T04:36:45;2.20;99.90
23271;DHT22;11804;51.118;17.058;2023-11-19T04:39:12;2.10;99.90
23271;DHT22;11804;51.118;17.058;2023-11-19T04:41:48;2.20;99.90
23271;DHT22;11804;51.118;17.058;2023-11-19T04:44:16;2.30;99.90
23271;DHT22;11804;51.118;17.058;2023-11-19T04:46:46;2.40;99.90
23271;DHT22;11804;51.118;17.058;2023-11-19T04:49:14;2.40;99.90
23271;DHT22;11804;51.118;17.058;2023-11-19T04:51:44;2.40;99.90
23271;DHT22;11804;51.118;17.058;2023-11-19T04:54:13;2.40;99.90
23271;DHT22;11804;51.118;17.058;2023-11-19T04:56:44;2.40;99.90
23271;DHT22;11804;51.118;17.058;2023-11-19T04:59:10;2.50;99.90
23271;DHT22;11804;51.118;17.058;2023-11-19T05:01:37;2.50;99.90
23271;DHT22;11804;51.118;17.058;2023-11-19T05:04:05;2.40;99.90
23271;DHT22;11804;51.118;17.058;2023-11-19T05:06:35;2.40;99.90
23271;DHT22;11804;51.118;17.058;2023-11-19T05:09:04;2.50;99.90
23271;DHT22;11804;51.118;17.058;2023-11-19T05:11:34;2.50;99.90
23271;DHT22;11804;51.118;17.058;2023-11-19T05:14:03;2.50;99.90
23271;DHT22;11804;51.118;17.058;2023-11-19T05:16:30;2.50;99.90
23271;DHT22;11804;51.118;17.058;2023-11-19T05:18:58;2.50;99.90
23271;DHT22;11804;51.118;17.058;2023-11-19T05:21:25;2.60;99.90
23271;DHT22;11804;51.118;17.058;2023-11-19T05:23:53;2.50;99.90
23271;DHT22;11804;51.118;17.058;2023-11-19T05:26:22;2.40;99.90
23271;DHT22;11804;51.118;17.058;2023-11-19T05:28:50;2.40;99.90
23271;DHT22;11804;51.118;17.058;2023-11-19T05:31:18;2.50;99.90
23271;DHT22;11804;51.118;17.058;2023-11-19T05:33:46;2.50;99.90
23271;DHT22;11804;51.118;17.058;2023-11-19T05:36:13;2.50;99.90
23271;DHT22;11804;51.118;17.058;2023-11-19T05:38:41;2.50;99.90
23271;DHT22;11804;51.118;17.058;2023-11-19T05:41:08;2.50;99.90
23271;DHT22;11804;51.118;17.058;2023-11-19T05:43:36;2.50;99.90
23271;DHT22;11804;51.118;17.058;2023-11-19T05:46:05;2.50;99.90
23271;DHT22;11804;51.118;17.058;2023-11-19T05:48:33;2.50;99.90
23271;DHT22;11804;51.118;17.058;2023-11-19T05:51:01;2.60;99.90
23271;DHT22;11804;51.118;17.058;2023-11-19T05:53:29;2.60;99.90
23271;DHT22;11804;51.118;17.058;2023-11-19T05:55:57;2.60;99.90
23271;DHT22;11804;51.118;17.058;2023-11-19T05:58:26;2.70;99.90
23271;DHT22;11804;51.118;17.058;2023-11-19T06:00:56;2.70;99.90
23271;DHT22;11804;51.118;17.058;2023-11-19T06:03:24;2.70;99.90
23271;DHT22;11804;51.118;17.058;2023-11-19T06:05:51;2.70;99.90
23271;DHT22;11804;51.118;17.058;2023-11-19T06:08:21;2.70;99.90
23271;DHT22;11804;51.118;17.058;2023-11-19T06:10:48;2.80;99.90
23271;DHT22;11804;51.118;17.058;2023-11-19T06:13:18;2.70;99.90
23271;DHT22;11804;51.118;17.058;2023-11-19T06:15:46;2.70;99.90
23271;DHT22;11804;51.118;17.058;2023-11-19T06:18:13;2.70;99.90
23271;DHT22;11804;51.118;17.058;2023-11-19T06:20:41;2.80;99.90
23271;DHT22;11804;51.118;17.058;2023-11-19T06:23:09;2.90;99.90
23271;DHT22;11804;51.118;17.058;2023-11-19T06:25:36;2.80;99.90
23271;DHT22;11804;51.118;17.058;2023-11-19T06:28:04;2.90;99.90
23271;DHT22;11804;51.118;17.058;2023-11-19T06:30:32;2.90;99.90
23271;DHT22;11804;51.118;17.058;2023-11-19T06:33:00;2.90;99.90
23271;DHT22;11804;51.118;17.058;2023-11-19T06:35:28;2.90;99.90
23271;DHT22;11804;51.118;17.058;2023-11-19T06:37:57;2.90;99.90
23271;DHT22;11804;51.118;17.058;2023-11-19T06:40:25;2.80;99.90
23271;DHT22;11804;51.118;17.058;2023-11-19T06:42:53;2.80;99.90
23271;DHT22;11804;51.118;17.058;2023-11-19T06:45:20;2.80;99.90
23271;DHT22;11804;51.118;17.058;2023-11-19T06:47:48;2.90;99.90
23271;DHT22;11804;51.118;17.058;2023-11-19T06:50:16;3.00;99.90
23271;DHT22;11804;51.118;17.058;2023-11-19T06:52:46;3.00;99.90
23271;DHT22;11804;51.118;17.058;2023-11-19T06:55:14;3.00;99.90
23271;DHT22;11804;51.118;17.058;2023-11-19T06:57:42;3.00;99.90
23271;DHT22;11804;51.118;17.058;2023-11-19T07:00:11;3.10;99.90
23271;DHT22;11804;51.118;17.058;2023-11-19T07:02:39;3.10;99.90
23271;DHT22;11804;51.118;17.058;2023-11-19T07:05:06;3.10;99.90
23271;DHT22;11804;51.118;17.058;2023-11-19T07:07:34;3.20;99.90
23271;DHT22;11804;51.118;17.058;2023-11-19T07:10:02;3.30;99.90
23271;DHT22;11804;51.118;17.058;2023-11-19T07:12:31;3.30;99.90
23271;DHT22;11804;51.118;17.058;2023-11-19T07:14:58;3.30;99.90
23271;DHT22;11804;51.118;17.058;2023-11-19T07:17:26;3.30;99.90
23271;DHT22;11804;51.118;17.058;2023-11-19T07:19:54;3.40;99.90
23271;DHT22;11804;51.118;17.058;2023-11-19T07:22:21;3.40;99.90
23271;DHT22;11804;51.118;17.058;2023-11-19T07:24:49;3.40;99.90
23271;DHT22;11804;51.118;17.058;2023-11-19T07:27:17;3.50;99.90
23271;DHT22;11804;51.118;17.058;2023-11-19T07:29:47;3.50;99.90
23271;DHT22;11804;51.118;17.058;2023-11-19T07:32:15;3.50;99.90
23271;DHT22;11804;51.118;17.058;2023-11-19T07:34:44;3.50;99.90
23271;DHT22;11804;51.118;17.058;2023-11-19T07:37:14;3.50;99.90
23271;DHT22;11804;51.118;17.058;2023-11-19T07:39:43;3.60;99.90
23271;DHT22;11804;51.118;17.058;2023-11-19T07:42:11;3.60;99.90
23271;DHT22;11804;51.118;17.058;2023-11-19T07:44:38;3.60;99.90
23271;DHT22;11804;51.118;17.058;2023-11-19T07:47:06;3.60;99.90
23271;DHT22;11804;51.118;17.058;2023-11-19T07:49:34;3.70;99.90
23271;DHT22;11804;51.118;17.058;2023-11-19T07:52:01;3.70;99.90
23271;DHT22;11804;51.118;17.058;2023-11-19T07:54:29;3.70;99.90
23271;DHT22;11804;51.118;17.058;2023-11-19T07:56:57;3.60;99.90
23271;DHT22;11804;51.118;17.058;2023-11-19T07:59:24;3.60;99.90
23271;DHT22;11804;51.118;17.058;2023-11-19T08:01:52;3.60;99.90
23271;DHT22;11804;51.118;17.058;2023-11-19T08:04:20;3.50;99.90
23271;DHT22;11804;51.118;17.058;2023-11-19T08:06:47;3.50;99.90
23271;DHT22;11804;51.118;17.058;2023-11-19T08:09:15;3.50;99.90
23271;DHT22;11804;51.118;17.058;2023-11-19T08:11:42;3.50;99.90
23271;DHT22;11804;51.118;17.058;2023-11-19T08:14:10;3.50;99.90
23271;DHT22;11804;51.118;17.058;2023-11-19T08:16:39;3.60;99.90
23271;DHT22;11804;51.118;17.058;2023-11-19T08:19:07;3.60;99.90
23271;DHT22;11804;51.118;17.058;2023-11-19T08:21:35;3.60;99.90
23271;DHT22;11804;51.118;17.058;2023-11-19T08:24:03;3.60;99.90
23271;DHT22;11804;51.118;17.058;2023-11-19T08:26:31;3.60;99.90
23271;DHT22;11804;51.118;17.058;2023-11-19T08:28:58;3.60;99.90
23271;DHT22;11804;51.118;17.058;2023-11-19T08:31:26;3.60;99.90
23271;DHT22;11804;51.118;17.058;2023-11-19T08:33:53;3.50;99.90
23271;DHT22;11804;51.118;17.058;2023-11-19T08:36:22;3.50;99.90
23271;DHT22;11804;51.118;17.058;2023-11-19T08:38:50;3.50;99.90
23271;DHT22;11804;51.118;17.058;2023-11-19T08:41:18;3.40;99.90
23271;DHT22;11804;51.118;17.058;2023-11-19T08:43:46;3.30;99.90
23271;DHT22;11804;51.118;17.058;2023-11-19T08:46:14;3.30;99.90
23271;DHT22;11804;51.118;17.058;2023-11-19T08:48:41;3.20;99.90
23271;DHT22;11804;51.118;17.058;2023-11-19T08:51:09;3.10;99.90
23271;DHT22;11804;51.118;17.058;2023-11-19T08:53:36;2.90;99.90
23271;DHT22;11804;51.118;17.058;2023-11-19T08:56:04;2.90;99.90
23271;DHT22;11804;51.118;17.058;2023-11-19T08:58:32;2.90;99.90
23271;DHT22;11804;51.118;17.058;2023-11-19T09:00:59;2.90;99.90
23271;DHT22;11804;51.118;17.058;2023-11-19T09:03:27;3.00;99.90
23271;DHT22;11804;51.118;17.058;2023-11-19T09:05:56;3.00;99.90
23271;DHT22;11804;51.118;17.058;2023-11-19T09:08:24;3.10;99.90
23271;DHT22;11804;51.118;17.058;2023-11-19T09:10:51;3.20;99.90
23271;DHT22;11804;51.118;17.058;2023-11-19T09:13:19;3.10;99.90
23271;DHT22;11804;51.118;17.058;2023-11-19T09:15:46;3.20;99.90
23271;DHT22;11804;51.118;17.058;2023-11-19T09:18:14;3.20;99.90
23271;DHT22;11804;51.118;17.058;2023-11-19T09:20:41;3.20;99.90
23271;DHT22;11804;51.118;17.058;2023-11-19T09:23:09;3.20;99.90
23271;DHT22;11804;51.118;17.058;2023-11-19T09:25:37;3.20;99.90
23271;DHT22;11804;51.118;17.058;2023-11-19T09:28:04;3.30;99.90
23271;DHT22;11804;51.118;17.058;2023-11-19T09:30:32;3.30;99.90
23271;DHT22;11804;51.118;17.058;2023-11-19T09:33:04;3.40;99.90
23271;DHT22;11804;51.118;17.058;2023-11-19T09:35:32;3.50;99.90
23271;DHT22;11804;51.118;17.058;2023-11-19T09:38:00;3.60;99.90
23271;DHT22;11804;51.118;17.058;2023-11-19T09:40:28;3.60;99.90
23271;DHT22;11804;51.118;17.058;2023-11-19T09:43:00;3.60;99.90
23271;DHT22;11804;51.118;17.058;2023-11-19T09:45:28;3.60;99.90
23271;DHT22;11804;51.118;17.058;2023-11-19T09:47:57;3.60;99.90
23271;DHT22;11804;51.118;17.058;2023-11-19T09:50:26;3.70;99.90
23271;DHT22;11804;51.118;17.058;2023-11-19T09:52:54;3.70;99.90
23271;DHT22;11804;51.118;17.058;2023-11-19T09:55:22;3.60;99.90
23271;DHT22;11804;51.118;17.058;2023-11-19T09:57:51;3.70;99.90
23271;DHT22;11804;51.118;17.058;2023-11-19T10:00:21;3.70;99.90
23271;DHT22;11804;51.118;17.058;2023-11-19T10:02:49;3.80;99.90
23271;DHT22;11804;51.118;17.058;2023-11-19T10:05:18;3.80;99.90
23271;DHT22;11804;51.118;17.058;2023-11-19T10:07:50;3.80;99.90
23271;DHT22;11804;51.118;17.058;2023-11-19T10:10:18;3.80;99.90
23271;DHT22;11804;51.118;17.058;2023-11-19T10:12:46;3.80;99.90
23271;DHT22;11804;51.118;17.058;2023-11-19T10:15:24;3.80;99.90
23271;DHT22;11804;51.118;17.058;2023-11-19T10:17:55;3.80;99.90
23271;DHT22;11804;51.118;17.058;2023-11-19T10:20:23;3.80;99.90
23271;DHT22;11804;51.118;17.058;2023-11-19T10:22:55;3.80;99.90
23271;DHT22;11804;51.118;17.058;2023-11-19T10:25:24;3.80;99.90
23271;DHT22;11804;51.118;17.058;2023-11-19T10:27:52;3.90;99.90
23271;DHT22;11804;51.118;17.058;2023-11-19T10:30:27;4.00;99.90
23271;DHT22;11804;51.118;17.058;2023-11-19T10:33:09;4.20;99.90
23271;DHT22;11804;51.118;17.058;2023-11-19T10:35:57;4.20;99.90
23271;DHT22;11804;51.118;17.058;2023-11-19T10:38:26;4.30;99.90
23271;DHT22;11804;51.118;17.058;2023-11-19T10:40:54;4.50;99.90
23271;DHT22;11804;51.118;17.058;2023-11-19T10:43:22;4.50;99.90
23271;DHT22;11804;51.118;17.058;2023-11-19T10:45:57;4.40;99.90
23271;DHT22;11804;51.118;17.058;2023-11-19T10:48:23;4.50;99.90
23271;DHT22;11804;51.118;17.058;2023-11-19T10:50:55;4.40;99.90
23271;DHT22;11804;51.118;17.058;2023-11-19T10:53:24;4.40;99.90
23271;DHT22;11804;51.118;17.058;2023-11-19T10:55:59;4.40;99.90
23271;DHT22;11804;51.118;17.058;2023-11-19T11:01:16;4.40;99.90
23271;DHT22;11804;51.118;17.058;2023-11-19T11:03:43;4.40;99.90
23271;DHT22;11804;51.118;17.058;2023-11-19T11:06:13;4.40;99.90
23271;DHT22;11804;51.118;17.058;2023-11-19T11:08:43;4.40;99.90
23271;DHT22;11804;51.118;17.058;2023-11-19T11:11:11;4.40;99.90
23271;DHT22;11804;51.118;17.058;2023-11-19T11:13:44;4.40;99.90
23271;DHT22;11804;51.118;17.058;2023-11-19T11:16:12;4.30;99.90
23271;DHT22;11804;51.118;17.058;2023-11-19T11:18:40;4.30;99.90
23271;DHT22;11804;51.118;17.058;2023-11-19T11:21:11;4.40;99.90
23271;DHT22;11804;51.118;17.058;2023-11-19T11:24:03;4.40;99.90
23271;DHT22;11804;51.118;17.058;2023-11-19T11:29:44;4.40;99.90
23271;DHT22;11804;51.118;17.058;2023-11-19T11:37:45;4.50;99.90
23271;DHT22;11804;51.118;17.058;2023-11-19T11:40:15;4.50;99.90
23271;DHT22;11804;51.118;17.058;2023-11-19T11:42:45;4.60;99.90
23271;DHT22;11804;51.118;17.058;2023-11-19T11:45:14;4.60;99.90
23271;DHT22;11804;51.118;17.058;2023-11-19T11:48:04;4.60;99.90
23271;DHT22;11804;51.118;17.058;2023-11-19T11:50:23;4.60;99.90
23271;DHT22;11804;51.118;17.058;2023-11-19T11:55:35;4.60;99.90
23271;DHT22;11804;51.118;17.058;2023-11-19T11:58:08;4.70;99.90
23271;DHT22;11804;51.118;17.058;2023-11-19T12:00:40;4.70;99.90
23271;DHT22;11804;51.118;17.058;2023-11-19T12:03:09;4.70;99.90
23271;DHT22;11804;51.118;17.058;2023-11-19T12:05:42;4.80;99.90
23271;DHT22;11804;51.118;17.058;2023-11-19T12:08:12;4.80;99.90
23271;DHT22;11804;51.118;17.058;2023-11-19T12:10:50;4.80;99.90
23271;DHT22;11804;51.118;17.058;2023-11-19T12:13:19;4.80;99.90
23271;DHT22;11804;51.118;17.058;2023-11-19T12:18:29;4.90;99.90
23271;DHT22;11804;51.118;17.058;2023-11-19T12:20:59;5.00;99.90
23271;DHT22;11804;51.118;17.058;2023-11-19T12:23:29;5.00;99.90
23271;DHT22;11804;51.118;17.058;2023-11-19T12:25:58;5.00;99.90
23271;DHT22;11804;51.118;17.058;2023-11-19T12:28:26;5.10;99.90
23271;DHT22;11804;51.118;17.058;2023-11-19T12:30:54;5.10;99.90
23271;DHT22;11804;51.118;17.058;2023-11-19T12:33:23;5.20;99.90
23271;DHT22;11804;51.118;17.058;2023-11-19T12:35:50;5.20;99.90
23271;DHT22;11804;51.118;17.058;2023-11-19T12:38:22;5.20;99.90
23271;DHT22;11804;51.118;17.058;2023-11-19T12:41:09;5.30;99.90
23271;DHT22;11804;51.118;17.058;2023-11-19T12:43:41;5.40;99.90
23271;DHT22;11804;51.118;17.058;2023-11-19T12:46:22;5.50;99.90
23271;DHT22;11804;51.118;17.058;2023-11-19T12:48:51;5.40;99.90
23271;DHT22;11804;51.118;17.058;2023-11-19T12:51:20;5.40;99.90
23271;DHT22;11804;51.118;17.058;2023-11-19T12:53:52;5.50;99.90
23271;DHT22;11804;51.118;17.058;2023-11-19T12:56:23;5.60;99.90
23271;DHT22;11804;51.118;17.058;2023-11-19T12:58:51;5.60;99.90
23271;DHT22;11804;51.118;17.058;2023-11-19T13:01:20;5.70;99.90
23271;DHT22;11804;51.118;17.058;2023-11-19T13:03:48;5.70;99.90
23271;DHT22;11804;51.118;17.058;2023-11-19T13:06:17;5.80;99.90
23271;DHT22;11804;51.118;17.058;2023-11-19T13:08:49;5.80;99.90
23271;DHT22;11804;51.118;17.058;2023-11-19T13:11:33;5.90;99.90
23271;DHT22;11804;51.118;17.058;2023-11-19T13:14:02;6.00;99.90
23271;DHT22;11804;51.118;17.058;2023-11-19T13:16:36;6.00;99.90
23271;DHT22;11804;51.118;17.058;2023-11-19T13:19:07;6.10;99.90
23271;DHT22;11804;51.118;17.058;2023-11-19T13:21:35;6.00;99.90
23271;DHT22;11804;51.118;17.058;2023-11-19T13:24:03;6.00;99.90
23271;DHT22;11804;51.118;17.058;2023-11-19T13:26:32;6.00;99.90
23271;DHT22;11804;51.118;17.058;2023-11-19T13:28:59;6.00;99.90
23271;DHT22;11804;51.118;17.058;2023-11-19T13:31:27;6.10;99.90
23271;DHT22;11804;51.118;17.058;2023-11-19T13:33:55;6.10;99.90
23271;DHT22;11804;51.118;17.058;2023-11-19T13:36:24;6.00;99.90
23271;DHT22;11804;51.118;17.058;2023-11-19T13:38:52;6.00;99.90
23271;DHT22;11804;51.118;17.058;2023-11-19T13:41:22;6.10;99.90
23271;DHT22;11804;51.118;17.058;2023-11-19T13:43:50;6.20;99.90
23271;DHT22;11804;51.118;17.058;2023-11-19T13:46:18;6.50;99.90
23271;DHT22;11804;51.118;17.058;2023-11-19T13:48:45;6.50;99.90
23271;DHT22;11804;51.118;17.058;2023-11-19T13:51:15;6.40;99.90
23271;DHT22;11804;51.118;17.058;2023-11-19T13:53:43;6.50;99.90
23271;DHT22;11804;51.118;17.058;2023-11-19T13:56:10;6.60;99.90
23271;DHT22;11804;51.118;17.058;2023-11-19T13:58:38;6.70;99.90
23271;DHT22;11804;51.118;17.058;2023-11-19T14:01:06;6.80;99.90
23271;DHT22;11804;51.118;17.058;2023-11-19T14:03:34;6.70;99.90
23271;DHT22;11804;51.118;17.058;2023-11-19T14:06:02;6.70;99.90
23271;DHT22;11804;51.118;17.058;2023-11-19T14:08:30;6.70;99.90
23271;DHT22;11804;51.118;17.058;2023-11-19T14:10:57;6.60;99.90
23271;DHT22;11804;51.118;17.058;2023-11-19T14:13:25;6.70;99.90
23271;DHT22;11804;51.118;17.058;2023-11-19T14:15:52;6.90;99.90
23271;DHT22;11804;51.118;17.058;2023-11-19T14:18:20;6.90;99.90
23271;DHT22;11804;51.118;17.058;2023-11-19T14:20:47;6.90;99.90
23271;DHT22;11804;51.118;17.058;2023-11-19T14:23:15;6.80;99.90
23271;DHT22;11804;51.118;17.058;2023-11-19T14:25:43;6.70;99.90
23271;DHT22;11804;51.118;17.058;2023-11-19T14:28:11;6.70;99.90
23271;DHT22;11804;51.118;17.058;2023-11-19T14:30:38;6.70;99.90
23271;DHT22;11804;51.118;17.058;2023-11-19T14:33:08;6.70;99.90
23271;DHT22;11804;51.118;17.058;2023-11-19T14:35:35;6.80;99.90
23271;DHT22;11804;51.118;17.058;2023-11-19T14:38:03;6.90;99.90
23271;DHT22;11804;51.118;17.058;2023-11-19T14:40:32;6.80;99.90
23271;DHT22;11804;51.118;17.058;2023-11-19T14:43:01;6.80;99.90
23271;DHT22;11804;51.118;17.058;2023-11-19T14:45:31;6.80;99.90
23271;DHT22;11804;51.118;17.058;2023-11-19T14:47:58;6.70;99.90
23271;DHT22;11804;51.118;17.058;2023-11-19T14:50:26;6.80;99.90
23271;DHT22;11804;51.118;17.058;2023-11-19T14:52:54;6.80;99.90
23271;DHT22;11804;51.118;17.058;2023-11-19T14:55:22;6.80;99.90
23271;DHT22;11804;51.118;17.058;2023-11-19T14:57:49;6.80;99.90
23271;DHT22;11804;51.118;17.058;2023-11-19T15:00:18;6.80;99.90
23271;DHT22;11804;51.118;17.058;2023-11-19T15:02:53;6.80;99.90
23271;DHT22;11804;51.118;17.058;2023-11-19T15:05:21;6.70;99.90
23271;DHT22;11804;51.118;17.058;2023-11-19T15:07:49;6.70;99.90
23271;DHT22;11804;51.118;17.058;2023-11-19T15:10:16;6.80;99.90
23271;DHT22;11804;51.118;17.058;2023-11-19T15:12:44;6.90;99.90
23271;DHT22;11804;51.118;17.058;2023-11-19T15:15:14;7.00;99.90
23271;DHT22;11804;51.118;17.058;2023-11-19T15:17:41;7.10;99.90
23271;DHT22;11804;51.118;17.058;2023-11-19T15:20:10;7.20;99.90
23271;DHT22;11804;51.118;17.058;2023-11-19T15:22:39;7.20;99.90
23271;DHT22;11804;51.118;17.058;2023-11-19T15:25:08;7.30;99.90
23271;DHT22;11804;51.118;17.058;2023-11-19T15:27:36;7.30;99.90
23271;DHT22;11804;51.118;17.058;2023-11-19T15:30:06;7.30;99.90
23271;DHT22;11804;51.118;17.058;2023-11-19T15:32:36;7.30;99.90
23271;DHT22;11804;51.118;17.058;2023-11-19T15:35:05;7.30;99.90
23271;DHT22;11804;51.118;17.058;2023-11-19T15:37:34;7.40;99.90
23271;DHT22;11804;51.118;17.058;2023-11-19T15:40:01;7.40;99.90
23271;DHT22;11804;51.118;17.058;2023-11-19T15:42:32;7.30;99.90
23271;DHT22;11804;51.118;17.058;2023-11-19T15:44:59;7.30;99.90
23271;DHT22;11804;51.118;17.058;2023-11-19T15:47:29;7.30;99.90
23271;DHT22;11804;51.118;17.058;2023-11-19T15:49:57;7.30;99.90
23271;DHT22;11804;51.118;17.058;2023-11-19T15:52:26;7.20;99.90
23271;DHT22;11804;51.118;17.058;2023-11-19T15:54:53;7.20;99.90
23271;DHT22;11804;51.118;17.058;2023-11-19T15:57:22;7.20;99.90